Time;durP1;ratioP1;P1;durP2;ratioP2;P2;SDS_P1;SDS_P2;PMS_P1;PMS_P2;Temp;Humidity;BMP_temperature;BMP_pressure;BME280_temperature;BME280_humidity;BME280_pressure;Samples;Min_cycle;Max_cycle;Signal;HPM_P1;HPM_P2
2023/04/27 00:02:21;;;;;;;8.93;2.95;;;;;;;-145.41;100.00;58600.66;4984875;28;20404;-73
2023/04/27 00:04:46;;;;;;;9.27;3.17;;;;;;;-145.41;100.00;58600.66;4985857;28;20042;-73
2023/04/27 00:07:11;;;;;;;8.20;2.78;;;;;;;-145.41;100.00;58600.66;4983238;28;20042;-73
2023/04/27 00:09:37;;;;;;;6.05;2.85;;;;;;;-145.41;100.00;58600.66;4984828;28;20508;-73
2023/04/27 00:12:02;;;;;;;8.18;2.97;;;;;;;-145.41;100.00;58600.66;4984319;28;20045;-73
2023/04/27 00:14:27;;;;;;;7.78;3.30;;;;;;;-145.41;100.00;58600.66;4983391;28;20044;-74
2023/04/27 00:16:54;;;;;;;9.80;3.92;;;;;;;-145.41;100.00;58600.66;4983954;28;20045;-73
2023/04/27 00:19:19;;;;;;;8.88;2.90;;;;;;;-145.41;100.00;58600.66;4984223;28;20093;-73
2023/04/27 00:21:45;;;;;;;7.93;3.00;;;;;;;-145.41;100.00;58600.66;4986549;28;20038;-74
2023/04/27 00:24:10;;;;;;;7.72;2.60;;;;;;;-145.41;100.00;58600.66;4985438;28;20114;-73
2023/04/27 00:26:35;;;;;;;5.15;3.08;;;;;;;-145.41;100.00;58600.66;4984703;28;20141;-73
2023/04/27 00:29:01;;;;;;;5.55;2.80;;;;;;;-145.41;100.00;58600.66;4996438;28;20034;-74
2023/04/27 00:31:26;;;;;;;10.27;3.20;;;;;;;-145.41;100.00;58600.66;4988777;28;20042;-74
2023/04/27 00:33:52;;;;;;;9.27;3.42;;;;;;;-145.41;100.00;58600.66;4983743;28;20119;-74
2023/04/27 00:36:17;;;;;;;9.00;3.92;;;;;;;-145.41;100.00;58600.66;4972831;28;20034;-74
2023/04/27 00:38:42;;;;;;;6.22;2.63;;;;;;;-145.41;100.00;58600.66;4970268;28;20066;-73
2023/04/27 00:41:08;;;;;;;7.15;3.30;;;;;;;-145.41;100.00;58600.66;4974541;28;20042;-74
2023/04/27 00:43:44;;;;;;;7.85;3.00;;;;;;;-145.41;100.00;58600.66;4985828;28;20094;-73
2023/04/27 00:46:11;;;;;;;6.70;3.22;;;;;;;-145.41;100.00;58600.66;4985046;28;20121;-74
2023/04/27 00:48:39;;;;;;;9.82;3.83;;;;;;;-145.41;100.00;58600.66;4981671;28;20039;-73
2023/04/27 00:51:05;;;;;;;7.13;3.40;;;;;;;-145.41;100.00;58600.66;4984765;28;20042;-73
2023/04/27 00:53:30;;;;;;;10.95;3.85;;;;;;;-145.41;100.00;58600.66;4983962;28;20045;-73
2023/04/27 00:55:57;;;;;;;8.52;3.63;;;;;;;-145.41;100.00;58600.66;4964655;28;20038;-73
2023/04/27 00:58:22;;;;;;;8.80;3.13;;;;;;;-145.41;100.00;58600.66;4983452;28;20401;-73
2023/04/27 01:00:48;;;;;;;8.02;3.25;;;;;;;-145.41;100.00;58600.66;4965137;28;20038;-73
2023/04/27 01:03:13;;;;;;;6.53;2.92;;;;;;;-145.41;100.00;58600.66;4983287;28;20435;-73
2023/04/27 01:05:40;;;;;;;9.45;3.67;;;;;;;-145.41;100.00;58600.66;4984645;28;20571;-73
2023/04/27 01:08:06;;;;;;;8.68;3.33;;;;;;;-145.41;100.00;58600.66;4966722;28;20097;-73
2023/04/27 01:10:33;;;;;;;8.75;2.97;;;;;;;-145.41;100.00;58600.66;4979807;28;20031;-73
2023/04/27 01:12:58;;;;;;;8.25;3.35;;;;;;;-145.41;100.00;58600.66;4965669;28;20042;-74
2023/04/27 01:15:23;;;;;;;7.82;3.45;;;;;;;-145.41;100.00;58600.66;4972573;28;20133;-74
2023/04/27 01:17:56;;;;;;;7.80;3.63;;;;;;;-145.41;100.00;58600.66;4965579;28;20035;-73
2023/04/27 01:20:21;;;;;;;9.55;4.25;;;;;;;-145.41;100.00;58600.66;4966709;28;20112;-73
2023/04/27 01:22:47;;;;;;;10.70;3.40;;;;;;;-145.41;100.00;58600.66;4980982;28;20086;-73
2023/04/27 01:25:14;;;;;;;9.10;3.50;;;;;;;-145.41;100.00;58600.66;4984351;28;20035;-73
2023/04/27 01:27:39;;;;;;;8.60;3.20;;;;;;;-145.41;100.00;58600.66;4984331;28;20042;-73
2023/04/27 01:30:05;;;;;;;7.80;3.08;;;;;;;-145.41;100.00;58600.66;4973789;28;20042;-74
2023/04/27 01:32:31;;;;;;;8.65;3.20;;;;;;;-145.41;100.00;58600.66;4980704;28;20039;-73
2023/04/27 01:34:56;;;;;;;7.85;3.78;;;;;;;-145.41;100.00;58600.66;4983988;28;20038;-73
2023/04/27 01:37:25;;;;;;;9.43;3.78;;;;;;;-145.41;100.00;58600.66;4971803;28;20045;-73
2023/04/27 01:39:50;;;;;;;11.32;4.20;;;;;;;-145.41;100.00;58600.66;4980413;28;20046;-73
2023/04/27 01:42:16;;;;;;;6.20;3.30;;;;;;;-145.41;100.00;58600.66;4987901;28;20034;-73
2023/04/27 01:44:41;;;;;;;7.80;3.42;;;;;;;-145.41;100.00;58600.66;4987531;28;20038;-74
2023/04/27 01:47:07;;;;;;;9.18;3.42;;;;;;;-145.41;100.00;58600.66;4969676;28;20040;-74
2023/04/27 01:49:33;;;;;;;8.65;3.70;;;;;;;-145.41;100.00;58600.66;4984754;28;20034;-74
2023/04/27 01:51:58;;;;;;;8.23;3.95;;;;;;;-145.41;100.00;58600.66;4983809;28;20042;-73
2023/04/27 01:54:23;;;;;;;6.90;3.67;;;;;;;-145.41;100.00;58600.66;4978916;28;20038;-73
2023/04/27 01:56:49;;;;;;;6.70;3.60;;;;;;;-145.41;100.00;58600.66;4964221;28;20122;-74
2023/04/27 01:59:16;;;;;;;11.68;4.03;;;;;;;-145.41;100.00;58600.66;4973983;28;20439;-74
2023/04/27 02:01:41;;;;;;;9.05;3.42;;;;;;;-145.41;100.00;58600.66;4972479;28;20137;-74
2023/04/27 02:04:07;;;;;;;5.93;3.70;;;;;;;-145.41;100.00;58600.66;4983929;28;20042;-74
2023/04/27 02:06:34;;;;;;;7.20;3.60;;;;;;;-145.41;100.00;58600.66;4973219;28;20038;-73
2023/04/27 02:08:59;;;;;;;8.30;4.10;;;;;;;-145.41;100.00;58600.66;4979559;28;20039;-73
2023/04/27 02:11:25;;;;;;;7.72;3.50;;;;;;;-145.41;100.00;58600.66;4973415;28;20058;-74
2023/04/27 02:13:50;;;;;;;7.72;3.20;;;;;;;-145.41;100.00;58600.66;4963908;28;20046;-73
2023/04/27 02:16:16;;;;;;;7.03;3.50;;;;;;;-145.41;100.00;58600.66;4973577;28;20046;-73
2023/04/27 02:18:41;;;;;;;9.27;4.30;;;;;;;-145.41;100.00;58600.66;4971272;28;20039;-73
2023/04/27 02:21:09;;;;;;;10.77;4.22;;;;;;;-145.41;100.00;58600.66;4973742;28;20027;-73
2023/04/27 02:23:35;;;;;;;6.72;3.42;;;;;;;-145.41;100.00;58600.66;4983951;28;20049;-73
2023/04/27 02:26:01;;;;;;;6.70;3.70;;;;;;;-145.41;100.00;58600.66;4965832;28;20034;-73
2023/04/27 02:28:27;;;;;;;10.05;4.18;;;;;;;-145.41;100.00;58600.66;4980091;28;20401;-73
2023/04/27 02:30:52;;;;;;;10.07;4.15;;;;;;;-145.41;100.00;58600.66;4970586;28;20034;-73
2023/04/27 02:33:17;;;;;;;11.48;4.43;;;;;;;-145.41;100.00;58600.66;4983484;28;20035;-73
2023/04/27 02:35:43;;;;;;;10.63;4.03;;;;;;;-145.41;100.00;58600.66;4979805;28;20064;-74
2023/04/27 02:38:09;;;;;;;9.48;4.10;;;;;;;-145.41;100.00;58600.66;4979853;28;20058;-74
2023/04/27 02:40:36;;;;;;;8.05;3.88;;;;;;;-145.41;100.00;58600.66;4976071;28;20034;-74
2023/04/27 02:43:04;;;;;;;9.20;4.30;;;;;;;-145.41;100.00;58600.66;4971473;28;20030;-74
2023/04/27 02:45:30;;;;;;;10.20;4.20;;;;;;;-145.41;100.00;58600.66;4972922;28;20034;-74
2023/04/27 02:47:57;;;;;;;16.52;4.60;;;;;;;-145.41;100.00;58600.66;4983064;28;20441;-73
2023/04/27 02:50:22;;;;;;;10.25;4.50;;;;;;;-145.41;100.00;58600.66;4965798;28;20031;-74
2023/04/27 02:52:47;;;;;;;10.75;4.95;;;;;;;-145.41;100.00;58600.66;4972494;28;20041;-74
2023/04/27 02:55:13;;;;;;;9.98;4.35;;;;;;;-145.41;100.00;58600.66;4972040;28;20564;-74
2023/04/27 02:57:39;;;;;;;8.15;4.45;;;;;;;-145.41;100.00;58600.66;4964491;28;20673;-73
2023/04/27 03:00:07;;;;;;;8.57;4.10;;;;;;;-145.41;100.00;58600.66;4969676;28;20113;-74
2023/04/27 03:02:33;;;;;;;13.10;4.45;;;;;;;-145.41;100.00;58600.66;4960389;28;20037;-74
2023/04/27 03:04:58;;;;;;;11.20;5.20;;;;;;;-145.41;100.00;58600.66;4975127;28;20030;-74
2023/04/27 03:07:25;;;;;;;8.60;4.47;;;;;;;-145.41;100.00;58600.66;4968000;28;20031;-74
2023/04/27 03:09:50;;;;;;;10.05;4.38;;;;;;;-145.41;100.00;58600.66;4983930;28;20041;-73
2023/04/27 03:12:15;;;;;;;10.85;4.78;;;;;;;-145.41;100.00;58600.66;4976526;28;20035;-73
2023/04/27 03:14:41;;;;;;;8.45;4.35;;;;;;;-145.41;100.00;58600.66;4977069;28;20038;-73
2023/04/27 03:17:06;;;;;;;11.77;5.68;;;;;;;-145.41;100.00;58600.66;4991306;23;20103;-76
2023/04/27 03:19:31;;;;;;;12.68;4.88;;;;;;;-145.41;100.00;58600.66;4989063;28;20038;-75
2023/04/27 03:21:57;;;;;;;10.75;4.53;;;;;;;-145.41;100.00;58600.66;5006287;28;20125;-76
2023/04/27 03:24:24;;;;;;;13.13;4.70;;;;;;;-145.41;100.00;58600.66;4988466;28;20038;-76
2023/04/27 03:26:51;;;;;;;10.68;4.60;;;;;;;-145.41;100.00;58600.66;4984367;28;20551;-76
2023/04/27 03:29:16;;;;;;;8.85;4.55;;;;;;;-145.41;100.00;58600.66;4988362;28;20061;-76
2023/04/27 03:31:42;;;;;;;11.85;4.95;;;;;;;-145.41;100.00;58600.66;5012065;28;20027;-76
2023/04/27 03:34:07;;;;;;;11.07;5.63;;;;;;;-145.41;100.00;58600.66;5002878;28;20463;-76
2023/04/27 03:36:32;;;;;;;10.75;5.00;;;;;;;-145.41;100.00;58600.66;4993257;28;20034;-76
2023/04/27 03:38:58;;;;;;;9.98;4.93;;;;;;;-145.41;100.00;58600.66;4991996;28;20033;-75
2023/04/27 03:41:23;;;;;;;13.73;5.85;;;;;;;-145.41;100.00;58600.66;4987765;28;20112;-76
2023/04/27 03:43:52;;;;;;;9.07;4.97;;;;;;;-145.41;100.00;58600.66;4989161;28;20045;-76
2023/04/27 03:46:17;;;;;;;14.18;5.13;;;;;;;-145.41;100.00;58600.66;5002573;28;20042;-76
2023/04/27 03:48:43;;;;;;;10.77;4.93;;;;;;;-145.41;100.00;58600.66;4987355;28;20033;-76
2023/04/27 03:51:09;;;;;;;14.85;5.40;;;;;;;-145.41;100.00;58600.66;4986132;28;20038;-76
2023/04/27 03:53:35;;;;;;;9.88;5.20;;;;;;;-145.41;100.00;58600.66;4987283;28;20037;-76
2023/04/27 03:56:00;;;;;;;16.05;6.30;;;;;;;-145.41;100.00;58600.66;5002681;28;20030;-76
2023/04/27 03:58:26;;;;;;;12.32;5.78;;;;;;;-145.41;100.00;58600.66;4986413;28;20126;-76
2023/04/27 04:01:12;;;;;;;11.65;5.75;;;;;;;-145.41;100.00;58600.66;4996053;28;20428;-76
2023/04/27 04:03:37;;;;;;;11.32;4.30;;;;;;;-145.41;100.00;58600.66;4989757;28;20026;-76
2023/04/27 04:06:06;;;;;;;8.02;3.85;;;;;;;-145.41;100.00;58600.66;4988935;28;20029;-76
2023/04/27 04:08:33;;;;;;;10.65;5.00;;;;;;;-145.41;100.00;58600.66;4998877;28;20038;-76
2023/04/27 04:10:59;;;;;;;8.70;4.38;;;;;;;-145.41;100.00;58600.66;4991727;28;20060;-77
2023/04/27 04:13:24;;;;;;;9.73;4.50;;;;;;;-145.41;100.00;58600.66;4990634;28;20128;-76
2023/04/27 04:15:59;;;;;;;11.82;5.68;;;;;;;-145.41;100.00;58600.66;4993622;28;20137;-76
2023/04/27 04:18:25;;;;;;;12.13;6.97;;;;;;;-145.41;100.00;58600.66;4984848;28;20455;-76
2023/04/27 04:20:50;;;;;;;11.68;5.53;;;;;;;-145.41;100.00;58600.66;5007474;28;20041;-76
2023/04/27 04:23:15;;;;;;;13.35;6.00;;;;;;;-145.41;100.00;58600.66;4985160;28;20038;-77
2023/04/27 04:25:41;;;;;;;10.90;5.68;;;;;;;-145.41;100.00;58600.66;4985894;28;20125;-76
2023/04/27 04:28:06;;;;;;;14.10;7.40;;;;;;;-145.41;100.00;58600.66;4978860;28;20645;-76
2023/04/27 04:30:32;;;;;;;11.90;5.20;;;;;;;-145.41;100.00;58600.66;4991178;28;20033;-76
2023/04/27 04:32:57;;;;;;;11.65;4.88;;;;;;;-145.41;100.00;58600.66;4984140;28;20037;-77
2023/04/27 04:35:22;;;;;;;9.25;4.90;;;;;;;-145.41;100.00;58600.66;4986582;28;20030;-77
2023/04/27 04:37:48;;;;;;;14.02;5.70;;;;;;;-145.41;100.00;58600.66;4986670;28;20508;-77
2023/04/27 04:40:14;;;;;;;11.82;4.90;;;;;;;-145.41;100.00;58600.66;4987127;28;20030;-77
2023/04/27 04:42:40;;;;;;;9.38;4.82;;;;;;;-145.41;100.00;58600.66;5005631;28;20033;-76
2023/04/27 04:45:07;;;;;;;8.13;4.30;;;;;;;-145.41;100.00;58600.66;4984783;28;20080;-76
2023/04/27 04:47:33;;;;;;;11.52;5.20;;;;;;;-145.41;100.00;58600.66;4988044;28;20117;-77
2023/04/27 04:49:59;;;;;;;12.65;5.25;;;;;;;-145.41;100.00;58600.66;5001317;28;20113;-76
2023/04/27 04:52:26;;;;;;;9.50;4.93;;;;;;;-145.41;100.00;58600.66;4984438;28;20041;-76
2023/04/27 04:54:52;;;;;;;10.88;5.65;;;;;;;-145.41;100.00;58600.66;5009479;28;20048;-76
2023/04/27 04:57:18;;;;;;;9.95;4.70;;;;;;;-145.41;100.00;58600.66;4988473;28;20471;-76
2023/04/27 04:59:43;;;;;;;12.13;5.85;;;;;;;-145.41;100.00;58600.66;4990035;28;20030;-76
2023/04/27 05:02:10;;;;;;;11.15;5.82;;;;;;;-145.41;100.00;58600.66;4999586;28;20120;-76
2023/04/27 05:04:35;;;;;;;13.45;7.65;;;;;;;-145.41;100.00;58600.66;5005402;28;20069;-76
2023/04/27 05:07:00;;;;;;;16.85;6.32;;;;;;;-145.41;100.00;58600.66;5002852;28;20076;-76
2023/04/27 05:09:26;;;;;;;13.15;5.85;;;;;;;-145.41;100.00;58600.66;5001248;28;20121;-77
2023/04/27 05:11:51;;;;;;;14.45;5.85;;;;;;;-145.41;100.00;58600.66;5007098;28;20061;-76
2023/04/27 05:14:16;;;;;;;12.50;5.20;;;;;;;-145.41;100.00;58600.66;5006058;28;20057;-76
2023/04/27 05:16:42;;;;;;;10.77;4.93;;;;;;;-145.41;100.00;58600.66;5000290;28;20117;-76
2023/04/27 05:19:07;;;;;;;11.85;5.00;;;;;;;-145.41;100.00;58600.66;5002193;28;20064;-76
2023/04/27 05:21:33;;;;;;;9.48;5.13;;;;;;;-145.41;100.00;58600.66;5003953;28;20524;-76
2023/04/27 05:23:59;;;;;;;10.52;4.63;;;;;;;-145.41;100.00;58600.66;5003499;28;20077;-76
2023/04/27 05:26:24;;;;;;;10.43;5.03;;;;;;;-145.41;100.00;58600.66;5001919;28;20445;-76
2023/04/27 05:28:50;;;;;;;11.00;5.05;;;;;;;-145.41;100.00;58600.66;4984368;28;20056;-76
2023/04/27 05:31:15;;;;;;;11.68;5.20;;;;;;;-145.41;100.00;58600.66;4987655;28;20105;-77
2023/04/27 05:33:40;;;;;;;12.75;4.50;;;;;;;-145.41;100.00;58600.66;4985925;28;20093;-76
2023/04/27 05:36:06;;;;;;;10.35;4.18;;;;;;;-145.41;100.00;58600.66;5001450;28;20073;-76
2023/04/27 05:38:33;;;;;;;10.60;4.38;;;;;;;-145.41;100.00;58600.66;5000924;28;20041;-76
2023/04/27 05:40:59;;;;;;;10.75;4.55;;;;;;;-145.41;100.00;58600.66;4992433;28;20053;-76
2023/04/27 05:43:25;;;;;;;10.77;4.80;;;;;;;-145.41;100.00;58600.66;5006633;28;20034;-76
2023/04/27 05:45:50;;;;;;;9.00;5.07;;;;;;;-145.41;100.00;58600.66;5001799;28;20041;-76
2023/04/27 05:48:16;;;;;;;9.00;4.97;;;;;;;-145.41;100.00;58600.66;5004470;28;20122;-76
2023/04/27 05:50:41;;;;;;;9.38;5.22;;;;;;;-145.41;100.00;58600.66;5006364;28;20041;-76
2023/04/27 05:53:07;;;;;;;9.50;4.63;;;;;;;-145.41;100.00;58600.66;5005507;28;20101;-75
2023/04/27 05:55:32;;;;;;;10.18;5.10;;;;;;;-145.41;100.00;58600.66;5003445;28;20034;-76
2023/04/27 05:57:58;;;;;;;12.60;5.50;;;;;;;-145.41;100.00;58600.66;5004655;28;20112;-77
2023/04/27 06:00:23;;;;;;;7.57;4.57;;;;;;;-145.41;100.00;58600.66;5002890;28;20049;-76
2023/04/27 06:02:49;;;;;;;8.95;4.82;;;;;;;-145.41;100.00;58600.66;5003515;28;20038;-76
2023/04/27 06:05:14;;;;;;;12.00;5.00;;;;;;;-145.41;100.00;58600.66;5003405;28;20088;-76
2023/04/27 06:07:42;;;;;;;10.98;5.78;;;;;;;-145.41;100.00;58600.66;5001720;28;20065;-76
2023/04/27 06:10:08;;;;;;;12.40;5.88;;;;;;;-145.41;100.00;58600.66;5007667;28;20046;-76
2023/04/27 06:12:34;;;;;;;11.45;6.03;;;;;;;-145.41;100.00;58600.66;5001571;28;20047;-76
2023/04/27 06:14:59;;;;;;;10.43;5.68;;;;;;;-145.41;100.00;58600.66;5002871;28;20038;-76
2023/04/27 06:17:25;;;;;;;10.73;5.10;;;;;;;-145.41;100.00;58600.66;5000723;28;20067;-76
2023/04/27 06:19:50;;;;;;;10.82;5.38;;;;;;;-145.41;100.00;58600.66;5002591;28;20030;-76
2023/04/27 06:22:15;;;;;;;11.63;5.18;;;;;;;-145.41;100.00;58600.66;5003144;28;20393;-76
2023/04/27 06:24:41;;;;;;;11.35;4.85;;;;;;;-145.41;100.00;58600.66;5004374;28;20038;-77
2023/04/27 06:27:06;;;;;;;9.65;4.70;;;;;;;-145.41;100.00;58600.66;5003304;28;20551;-77
2023/04/27 06:29:32;;;;;;;7.28;4.63;;;;;;;-145.41;100.00;58600.66;5001352;28;20034;-76
2023/04/27 06:31:57;;;;;;;10.73;4.65;;;;;;;-145.41;100.00;58600.66;5002554;28;20042;-76
2023/04/27 06:34:22;;;;;;;9.20;4.50;;;;;;;-145.41;100.00;58600.66;5000757;28;20066;-77
2023/04/27 06:36:48;;;;;;;7.88;5.25;;;;;;;-145.41;100.00;58600.66;5009071;28;20049;-77
2023/04/27 06:39:13;;;;;;;8.30;4.57;;;;;;;-145.41;100.00;58600.66;5003944;28;20044;-76
2023/04/27 06:41:38;;;;;;;12.13;5.57;;;;;;;-145.41;100.00;58600.66;5006553;28;20041;-76
2023/04/27 06:44:11;;;;;;;;;;;;;;;-145.41;100.00;58600.66;4987128;28;20504;-77
2023/04/27 06:46:36;;;;;;;12.02;5.03;;;;;;;-145.41;100.00;58600.66;4987858;28;19913;-76
2023/04/27 06:49:01;;;;;;;11.75;4.72;;;;;;;-145.41;100.00;58600.66;5011320;28;20407;-76
2023/04/27 06:51:27;;;;;;;10.85;6.07;;;;;;;-145.41;100.00;58600.66;5008800;28;20445;-76
2023/04/27 06:53:52;;;;;;;12.10;5.32;;;;;;;-145.41;100.00;58600.66;5010034;28;21017;-76
2023/04/27 06:56:17;;;;;;;8.48;5.30;;;;;;;-145.41;100.00;58600.66;5007513;28;20129;-77
2023/04/27 06:58:43;;;;;;;7.68;4.75;;;;;;;-145.41;100.00;58600.66;5005683;28;20600;-77
2023/04/27 07:01:08;;;;;;;10.05;4.93;;;;;;;-145.41;100.00;58600.66;5007687;28;20496;-76
2023/04/27 07:03:35;;;;;;;9.23;4.90;;;;;;;-145.41;100.00;58600.66;5003866;28;20448;-77
2023/04/27 07:06:00;;;;;;;11.57;5.32;;;;;;;-145.41;100.00;58600.66;5005924;28;20084;-77
2023/04/27 07:08:25;;;;;;;9.73;4.85;;;;;;;-145.41;100.00;58600.66;4983728;28;20034;-77
2023/04/27 07:10:51;;;;;;;9.55;5.38;;;;;;;-145.41;100.00;58600.66;5007214;28;20065;-76
2023/04/27 07:13:16;;;;;;;7.68;4.57;;;;;;;-145.41;100.00;58600.66;5005799;28;20034;-77
2023/04/27 07:15:41;;;;;;;13.57;5.95;;;;;;;-145.41;100.00;58600.66;5003189;28;20101;-77
2023/04/27 07:18:07;;;;;;;11.40;5.78;;;;;;;-145.41;100.00;58600.66;5005684;28;20040;-76
2023/04/27 07:20:32;;;;;;;9.52;5.38;;;;;;;-145.41;100.00;58600.66;5003367;28;20073;-77
2023/04/27 07:22:57;;;;;;;8.20;4.97;;;;;;;-145.41;100.00;58600.66;5010014;28;20484;-77
2023/04/27 07:25:23;;;;;;;10.27;5.55;;;;;;;-145.41;100.00;58600.66;4986109;28;20562;-77
2023/04/27 07:27:48;;;;;;;8.55;5.07;;;;;;;-145.41;100.00;58600.66;5005933;28;20038;-76
2023/04/27 07:30:14;;;;;;;13.10;5.68;;;;;;;-145.41;100.00;58600.66;5009034;28;20056;-77
2023/04/27 07:32:43;;;;;;;10.98;5.72;;;;;;;-145.41;100.00;58600.66;5008484;28;20582;-77
2023/04/27 07:35:08;;;;;;;9.63;5.43;;;;;;;-145.41;100.00;58600.66;5007852;28;20049;-77
2023/04/27 07:37:36;;;;;;;11.63;5.70;;;;;;;-145.41;100.00;58600.66;5007317;28;20042;-76
2023/04/27 07:40:09;;;;;;;11.65;5.95;;;;;;;-145.41;100.00;58600.66;5003746;28;20088;-76
2023/04/27 07:42:37;;;;;;;8.60;4.97;;;;;;;-145.41;100.00;58600.66;5009508;28;20040;-76
2023/04/27 07:45:02;;;;;;;8.73;5.65;;;;;;;-145.41;100.00;58600.66;5009859;28;20045;-77
2023/04/27 07:47:28;;;;;;;10.52;6.57;;;;;;;-145.41;100.00;58600.66;5007176;28;20061;-76
2023/04/27 07:49:54;;;;;;;12.95;6.55;;;;;;;-145.41;100.00;58600.66;5007031;28;20132;-76
2023/04/27 07:52:20;;;;;;;9.80;5.22;;;;;;;-145.41;100.00;58600.66;5005911;28;20042;-77
2023/04/27 07:54:45;;;;;;;8.38;4.40;;;;;;;-145.41;100.00;58600.66;5004908;28;20060;-76
2023/04/27 07:57:11;;;;;;;9.07;3.97;;;;;;;-145.41;100.00;58600.66;5002347;28;20640;-76
2023/04/27 07:59:37;;;;;;;9.00;4.25;;;;;;;-145.41;100.00;58600.66;5005994;28;20104;-76
2023/04/27 08:02:02;;;;;;;13.45;5.22;;;;;;;-145.41;100.00;58600.66;5003759;28;20037;-76
2023/04/27 08:04:28;;;;;;;7.18;3.53;;;;;;;-145.41;100.00;58600.66;5000502;28;20382;-77
2023/04/27 08:06:53;;;;;;;6.63;2.92;;;;;;;-145.41;100.00;58600.66;5003723;28;20106;-77
2023/04/27 08:09:18;;;;;;;7.05;3.35;;;;;;;-145.41;100.00;58600.66;4999523;28;20062;-76
2023/04/27 08:11:44;;;;;;;9.88;3.45;;;;;;;-145.41;100.00;58600.66;5003768;28;20042;-76
2023/04/27 08:14:12;;;;;;;6.97;2.88;;;;;;;-145.41;100.00;58600.66;5006184;28;20075;-77
2023/04/27 08:16:41;;;;;;;7.22;3.10;;;;;;;-145.41;100.00;58600.66;5007546;28;20065;-76
2023/04/27 08:19:08;;;;;;;9.57;3.60;;;;;;;-145.41;100.00;58600.66;5008586;28;20493;-76
2023/04/27 08:21:35;;;;;;;10.27;3.33;;;;;;;-145.41;100.00;58600.66;5006286;28;20496;-77
2023/04/27 08:24:01;;;;;;;9.38;3.22;;;;;;;-145.41;100.00;58600.66;5006848;28;20042;-77
2023/04/27 08:26:26;;;;;;;6.95;3.08;;;;;;;-145.41;100.00;58600.66;5011647;28;20018;-77
2023/04/27 08:28:52;;;;;;;7.68;4.13;;;;;;;-145.41;100.00;58600.66;5002901;28;20042;-76
2023/04/27 08:31:17;;;;;;;7.68;3.83;;;;;;;-145.41;100.00;58600.66;5006985;28;20060;-76
2023/04/27 08:33:42;;;;;;;10.77;4.30;;;;;;;-145.41;100.00;58600.66;5006680;28;20428;-77
2023/04/27 08:36:08;;;;;;;8.63;4.35;;;;;;;-145.41;100.00;58600.66;5004070;28;20073;-76
2023/04/27 08:38:34;;;;;;;12.07;5.55;;;;;;;-145.41;100.00;58600.66;5006382;28;20037;-77
2023/04/27 08:40:59;;;;;;;11.75;6.78;;;;;;;-145.41;100.00;58600.66;5008472;28;20497;-77
2023/04/27 08:43:25;;;;;;;16.25;7.22;;;;;;;-145.41;100.00;58600.66;5008721;28;20053;-77
2023/04/27 08:45:51;;;;;;;10.20;4.80;;;;;;;-145.41;100.00;58600.66;5005726;28;20034;-77
2023/04/27 08:48:17;;;;;;;11.88;6.88;;;;;;;-145.41;100.00;58600.66;5002365;28;20048;-76
2023/04/27 08:50:44;;;;;;;7.13;4.45;;;;;;;-145.41;100.00;58600.66;5010231;28;20037;-77
2023/04/27 08:53:17;;;;;;;10.20;3.83;;;;;;;-145.41;100.00;58600.66;5012973;28;20452;-76
2023/04/27 08:55:42;;;;;;;8.07;3.92;;;;;;;-145.41;100.00;58600.66;4986945;28;20585;-77
2023/04/27 08:58:07;;;;;;;9.65;4.10;;;;;;;-145.41;100.00;58600.66;5004852;28;20025;-77
2023/04/27 09:00:40;;;;;;;8.13;3.58;;;;;;;-145.41;100.00;58600.66;5008553;28;20043;-76
2023/04/27 09:03:27;;;;;;;13.57;5.20;;;;;;;-145.41;100.00;58600.66;5003007;28;20492;-77
2023/04/27 09:05:52;;;;;;;6.78;4.03;;;;;;;-145.41;100.00;58600.66;5001050;28;20109;-77
2023/04/27 09:08:17;;;;;;;8.32;4.15;;;;;;;-145.41;100.00;58600.66;5003706;28;20042;-76
2023/04/27 09:10:47;;;;;;;9.88;4.65;;;;;;;-145.41;100.00;58600.66;5001599;28;20109;-76
2023/04/27 09:13:13;;;;;;;8.90;4.88;;;;;;;-145.41;100.00;58600.66;4998279;28;20035;-76
2023/04/27 09:15:43;;;;;;;9.43;4.50;;;;;;;-145.41;100.00;58600.66;5006831;28;20137;-76
2023/04/27 09:18:15;;;;;;;8.35;4.35;;;;;;;-145.41;100.00;58600.66;5002709;28;20464;-77
2023/04/27 09:20:47;;;;;;;9.35;4.85;;;;;;;-145.41;100.00;58600.66;5004370;28;20034;-77
2023/04/27 09:23:24;;;;;;;;;;;;;;;-145.41;100.00;58600.66;5007976;28;20042;-77
2023/04/27 09:25:49;;;;;;;10.75;4.50;;;;;;;-145.41;100.00;58600.66;5007828;28;20393;-76
2023/04/27 09:28:15;;;;;;;8.00;4.75;;;;;;;-145.41;100.00;58600.66;5020132;23;20124;-74
2023/04/27 09:30:40;;;;;;;10.43;5.00;;;;;;;-145.41;100.00;58600.66;4994128;28;20038;-74
2023/04/27 09:33:06;;;;;;;8.70;4.60;;;;;;;-145.41;100.00;58600.66;4975454;28;20066;-74
2023/04/27 09:35:32;;;;;;;9.23;5.10;;;;;;;-145.41;100.00;58600.66;4995624;28;20049;-74
2023/04/27 09:37:59;;;;;;;8.27;4.80;;;;;;;-145.41;100.00;58600.66;4987386;28;20034;-74
2023/04/27 09:40:28;;;;;;;9.10;4.38;;;;;;;-145.41;100.00;58600.66;4974565;28;20031;-74
2023/04/27 09:42:55;;;;;;;11.52;5.22;;;;;;;-145.41;100.00;58600.66;4972572;28;20047;-74
2023/04/27 09:45:24;;;;;;;9.40;5.20;;;;;;;-145.41;100.00;58600.66;4972322;28;20444;-74
2023/04/27 09:47:50;;;;;;;11.48;5.28;;;;;;;-145.41;100.00;58600.66;4972241;28;20039;-71
2023/04/27 09:50:16;;;;;;;7.82;4.55;;;;;;;-145.41;100.00;58600.66;4968250;28;20077;-72
2023/04/27 09:52:42;;;;;;;8.52;5.30;;;;;;;-145.41;100.00;58600.66;4972455;28;20023;-71
2023/04/27 09:55:10;;;;;;;8.35;4.40;;;;;;;-145.41;100.00;58600.66;4972351;28;20042;-72
2023/04/27 09:57:42;;;;;;;8.43;4.82;;;;;;;-145.41;100.00;58600.66;4972065;28;20035;-71
2023/04/27 10:00:28;;;;;;;9.95;6.18;;;;;;;-145.41;100.00;58600.66;4972269;28;20035;-72
2023/04/27 10:03:20;;;;;;;10.40;5.05;;;;;;;-145.41;100.00;58600.66;4979125;28;20501;-72
2023/04/27 10:06:10;;;;;;;7.60;4.90;;;;;;;-145.41;100.00;58600.66;4968614;28;20506;-72
2023/04/27 10:08:37;;;;;;;7.70;4.90;;;;;;;-145.41;100.00;58600.66;4972010;28;20039;-72
2023/04/27 10:11:17;;;;;;;11.80;5.85;;;;;;;-145.41;100.00;58600.66;4970758;28;20516;-72
2023/04/27 10:13:54;;;;;;;10.18;6.03;;;;;;;-145.41;100.00;58600.66;4976275;28;20093;-71
2023/04/27 10:16:20;;;;;;;11.05;5.85;;;;;;;-145.41;100.00;58600.66;4975645;28;20049;-72
2023/04/27 10:18:55;;;;;;;11.48;6.75;;;;;;;-145.41;100.00;58600.66;4985088;28;20045;-72
2023/04/27 10:21:21;;;;;;;10.68;6.15;;;;;;;-145.41;100.00;58600.66;4975964;28;20089;-71
2023/04/27 10:23:49;;;;;;;7.40;5.53;;;;;;;-145.41;100.00;58600.66;4974785;28;20038;-71
2023/04/27 10:26:25;;;;;;;8.88;5.90;;;;;;;-145.41;100.00;58600.66;4976662;28;20027;-72
2023/04/27 10:29:04;;;;;;;11.35;6.13;;;;;;;-145.41;100.00;58600.66;4974822;28;20038;-72
2023/04/27 10:31:29;;;;;;;8.85;5.80;;;;;;;-145.41;100.00;58600.66;4975253;28;20058;-71
2023/04/27 10:34:05;;;;;;;9.35;5.30;;;;;;;-145.41;100.00;58600.66;4977425;28;20058;-71
2023/04/27 10:36:37;;;;;;;8.80;5.47;;;;;;;-145.41;100.00;58600.66;4977747;28;20513;-71
2023/04/27 10:39:17;;;;;;;9.13;5.18;;;;;;;-145.41;100.00;58600.66;4971811;28;20578;-71
2023/04/27 10:41:55;;;;;;;9.50;5.18;;;;;;;-145.41;100.00;58600.66;4975666;28;20046;-71
2023/04/27 10:44:27;;;;;;;8.30;5.07;;;;;;;-145.41;100.00;58600.66;4975997;28;20042;-71
2023/04/27 10:46:53;;;;;;;;;;;;;;;-145.41;100.00;58600.66;4981835;28;20100;-71
2023/04/27 10:49:19;;;;;;;10.77;4.45;;;;;;;-145.41;100.00;58600.66;4977523;28;19958;-71
2023/04/27 10:51:46;;;;;;;9.57;5.30;;;;;;;-145.41;100.00;58600.66;4975218;28;20035;-72
2023/04/27 10:54:12;;;;;;;8.88;5.50;;;;;;;-145.41;100.00;58600.66;4975573;28;20023;-71
2023/04/27 10:56:37;;;;;;;7.05;4.10;;;;;;;-145.41;100.00;58600.66;4975319;28;20054;-71
2023/04/27 10:59:04;;;;;;;8.75;4.20;;;;;;;-145.41;100.00;58600.66;4974330;28;20152;-71
2023/04/27 11:01:29;;;;;;;5.78;3.90;;;;;;;-145.41;100.00;58600.66;4977061;28;20033;-72
2023/04/27 11:03:56;;;;;;;8.60;4.38;;;;;;;-145.41;100.00;58600.66;4980052;28;20030;-72
2023/04/27 11:06:22;;;;;;;7.57;4.00;;;;;;;-145.41;100.00;58600.66;4978156;28;20042;-71